Flight Track Log - Related Links

Times and Time Zones

All times are in EDT time to prevent confusion due to time zone crossing. See the FSR411 flight status page for this flight to view local times or setup timezone preferences in your user account.

Time Position Orientation Groundspeed Altitude Reporting Facility
EDT Latitude Longitude Course Direction KTS MPH feet Rate Location/Type
Wed 06:24:20 PM 44.9167 -93.0333 102° East 192 221 2,200  Level Minneapolis TRACON
Wed 06:24:58 PM 44.9089 -92.9808 102° East 201 231 3,000 2,160 Climbing Minneapolis Center
Wed 06:26:00 PM 44.8608 -92.9217 139° Southeast 237 273 5,800 3,000 Climbing Minneapolis Center
Wed 06:27:02 PM 44.7981 -92.8647 147° Southeast 263 303 9,200 3,145 Climbing Minneapolis Center
Wed 06:28:04 PM 44.7228 -92.7953 147° Southeast 322 371 12,300 3,387 Climbing Minneapolis Center
Wed 06:29:06 PM 44.6350 -92.7144 147° Southeast 374 430 16,200 3,774 Climbing Minneapolis Center
Wed 06:30:08 PM 44.5603 -92.5928 131° Southeast 408 470 20,100 3,339 Climbing Minneapolis Center
Wed 06:31:10 PM 44.4869 -92.4614 128° Southeast 422 486 23,100 3,024 Climbing Minneapolis Center
Wed 06:32:11 PM 44.3925 -92.2950 128° Southeast 448 516 26,300 2,780 Climbing Minneapolis Center
Wed 06:33:13 PM 44.3117 -92.1542 129° Southeast 461 531 28,800 2,419 Climbing Minneapolis Center
Wed 06:34:15 PM 44.2317 -92.0133 128° Southeast 462 532 31,300 2,419 Climbing Minneapolis Center
Wed 06:35:17 PM 44.1511 -91.8761 129° Southeast 462 532 33,800 2,274 Climbing Minneapolis Center
Wed 06:36:19 PM 44.0733 -91.7408 129° Southeast 454 522 36,000 1,548 Climbing Minneapolis Center
Wed 06:37:21 PM 43.9789 -91.5817 129° Southeast 454 522 37,000 634 Climbing Minneapolis Center
Wed 06:38:22 PM 43.8900 -91.4494 133° Southeast 466 536 37,300 732 Climbing Minneapolis Center
Wed 06:39:24 PM 43.7831 -91.3536 147° Southeast 463 533 38,500 919 Climbing Minneapolis Center
Wed 06:40:26 PM 43.6781 -91.2594 147° Southeast 457 526 39,200 968 Climbing Minneapolis Center
Wed 06:41:28 PM 43.5725 -91.1675 148° Southeast 455 524 40,500 871 Climbing Minneapolis Center
Wed 06:42:30 PM 43.4686 -91.0778 148° Southeast 447 514 41,000 242 Climbing Minneapolis Center
Wed 06:43:32 PM 43.3594 -90.9833 148° Southeast 454 522 41,000  Level Minneapolis Center
Wed 06:44:05 PM 43.2933 -90.9269 148° Southeast 464 534 41,000  Level Chicago Center
Wed 06:45:07 PM 43.1836 -90.8319 148° Southeast 467 537 41,000  Level Chicago Center
Wed 06:46:09 PM 43.0497 -90.7161 148° Southeast 469 540 41,000  Level Chicago Center
Wed 06:47:11 PM 42.9372 -90.6200 148° Southeast 473 544 41,000  Level Chicago Center
Wed 06:48:13 PM 42.8264 -90.5267 148° Southeast 472 543 41,000  Level Chicago Center
Wed 06:49:16 PM 42.7164 -90.4322 148° Southeast 471 542 41,000 -288 Level Chicago Center
Wed 06:50:18 PM 42.6044 -90.3389 148° Southeast 471 542 40,400 -774 Descending Chicago Center
Wed 06:51:20 PM 42.4892 -90.2675 155° Southeast 461 531 39,400 -1,016 Descending Chicago Center
Wed 06:52:22 PM 42.3486 -90.1939 159° South 455 524 38,300 -1,161 Descending Chicago Center
Wed 06:53:24 PM 42.2319 -90.1339 159° South 454 522 37,000 -1,839 Descending Chicago Center
Wed 06:54:26 PM 42.1169 -90.0725 158° South 451 519 34,500 -1,887 Descending Chicago Center
Wed 06:55:28 PM 41.9958 -90.0122 160° South 460 529 33,100 -968 Descending Chicago Center
Wed 06:56:30 PM 41.8753 -89.9511 159° South 463 533 32,500 -960 Descending Chicago Center
Wed 06:57:33 PM 41.7381 -89.8828 160° South 463 533 31,100 -1,584 Descending Chicago Center
Wed 06:58:35 PM 41.6150 -89.8200 159° South 468 539 29,200 -1,742 Descending Chicago Center
Wed 06:59:37 PM 41.4897 -89.7594 160° South 474 545 27,500 -1,065 Descending Chicago Center
Wed 07:00:39 PM 41.3642 -89.6997 160° South 474 545 27,000 -290 Descending Chicago Center
Wed 07:01:41 PM 41.2203 -89.6114 155° Southeast 473 544 26,900 -726 Descending Chicago Center
Wed 07:02:43 PM 41.1200 -89.4917 138° Southeast 479 551 25,500 -968 Descending Chicago Center
Wed 07:03:45 PM 41.0219 -89.3789 139° Southeast 469 540 24,900 -816 Descending Chicago Center
Wed 07:04:48 PM 40.9222 -89.2656 139° Southeast 467 537 23,800 -1,776 Descending Chicago Center
Wed 07:05:50 PM 40.8236 -89.1531 139° Southeast 468 539 21,200 -2,613 Descending Chicago Center
Wed 07:06:52 PM 40.7328 -89.0503 139° Southeast 436 502 18,400 -2,806 Descending Chicago Center
Wed 07:07:54 PM 40.6456 -88.9517 139° Southeast 413 475 15,400 -2,468 Descending Chicago Center
Wed 07:08:56 PM 40.5631 -88.8583 139° Southeast 396 456 13,300 -1,935 Descending Chicago Center
Wed 07:09:58 PM 40.4650 -88.7483 140° Southeast 389 448 11,400 -1,500 Descending Chicago Center
Wed 07:11:00 PM 40.3861 -88.6608 140° Southeast 377 434 10,200 -1,008 Descending Chicago Center
Wed 07:12:03 PM 40.3147 -88.5825 140° Southeast 335 386 9,300 -1,440 Descending Chicago Center
Wed 07:13:05 PM 40.2500 -88.5078 139° Southeast 295 339 7,200 -1,887 Descending Chicago Center
Wed 07:14:07 PM 40.1939 -88.4456 140° Southeast 272 313 5,400 -1,645 Descending Chicago Center
Wed 07:15:09 PM 40.1525 -88.4019 141° Southeast 221 254 3,800 -1,065 Descending Chicago Center
Wed 07:16:11 PM 40.1061 -88.3528 141° Southeast 207 238 3,200 -581 Descending Chicago Center
Wed 07:18:00 PM 40.0388 -88.2778 138° Southeast  Level Estimated
Wed 07:25:00 PM 40.0388 -88.2778 138° Southeast  Level Estimated
Wed 07:26:00 PM 40.0388 -88.2778 123° Southeast  Level Estimated
Wed 07:27:00 PM 40.0388 -88.2778 138° Southeast  Level Estimated

Login

Don't have an account? Register now (free) for customized features, flight alerts, and more!